Time;durP1;ratioP1;P1;durP2;ratioP2;P2;SDS_P1;SDS_P2;PMS_P1;PMS_P2;Temp;Humidity;BMP_temperature;BMP_pressure;BME280_temperature;BME280_humidity;BME280_pressure;Samples;Min_cycle;Max_cycle;Signal;HPM_P1;HPM_P2
2024/02/24 00:01:03;;;;;;;1.35;1.20;;;3.00;99.90;;;;;;4965487;28;20039;-63
2024/02/24 00:03:29;;;;;;;2.10;1.30;;;3.00;99.90;;;;;;4963193;28;20041;-62
2024/02/24 00:05:55;;;;;;;2.17;1.27;;;3.00;99.90;;;;;;4967897;28;20052;-63
2024/02/24 00:08:20;;;;;;;2.63;1.55;;;2.90;99.90;;;;;;4964160;28;20396;-63
2024/02/24 00:10:46;;;;;;;3.28;1.63;;;2.90;99.90;;;;;;5000195;28;20120;-63
2024/02/24 00:13:12;;;;;;;1.45;1.30;;;2.90;99.90;;;;;;4963619;28;20512;-63
2024/02/24 00:15:37;;;;;;;3.08;1.30;;;2.90;99.90;;;;;;4990059;28;20108;-63
2024/02/24 00:18:04;;;;;;;2.20;1.35;;;2.90;99.90;;;;;;4946912;28;20108;-63
2024/02/24 00:20:29;;;;;;;2.30;1.25;;;2.90;99.90;;;;;;4943485;28;21580;-63
2024/02/24 00:22:55;;;;;;;1.95;1.40;;;2.80;99.90;;;;;;4993901;28;20108;-63
2024/02/24 00:25:20;;;;;;;3.78;1.60;;;2.80;99.90;;;;;;4956815;28;20113;-62
2024/02/24 00:27:46;;;;;;;2.95;1.63;;;2.80;99.90;;;;;;4960534;28;20021;-62
2024/02/24 00:30:13;;;;;;;5.47;1.73;;;2.80;99.90;;;;;;4984979;28;20284;-62
2024/02/24 00:32:38;;;;;;;3.80;1.63;;;2.80;99.90;;;;;;4967430;22;20053;-49
2024/02/24 00:35:04;;;;;;;3.95;1.55;;;2.70;99.90;;;;;;4977156;28;20414;-46
2024/02/24 00:37:30;;;;;;;3.33;1.55;;;2.70;99.90;;;;;;4938445;28;20044;-48
2024/02/24 00:39:56;;;;;;;3.70;1.65;;;2.70;99.90;;;;;;4937332;28;20030;-46
2024/02/24 00:42:21;;;;;;;3.33;1.13;;;2.70;99.90;;;;;;4964496;28;20040;-49
2024/02/24 00:44:47;;;;;;;1.88;1.10;;;2.70;99.90;;;;;;4937619;28;20082;-47
2024/02/24 00:47:12;;;;;;;4.70;1.55;;;2.70;99.90;;;;;;4945135;28;20030;-55
2024/02/24 00:49:38;;;;;;;2.22;0.80;;;2.60;99.90;;;;;;4968554;28;20025;-48
2024/02/24 00:52:04;;;;;;;2.78;1.20;;;2.60;99.90;;;;;;4933171;28;20030;-48
2024/02/24 00:54:30;;;;;;;4.75;1.17;;;2.60;99.90;;;;;;4963382;28;20030;-47
2024/02/24 00:56:55;;;;;;;1.17;1.08;;;2.60;99.90;;;;;;4935702;28;20450;-52
2024/02/24 00:59:23;;;;;;;2.13;1.15;;;2.60;99.90;;;;;;4934388;28;20030;-47
2024/02/24 01:01:48;;;;;;;2.45;1.20;;;2.60;99.90;;;;;;4972690;28;20044;-48
2024/02/24 01:04:14;;;;;;;2.88;1.33;;;2.60;99.90;;;;;;4932035;28;20029;-49
2024/02/24 01:06:40;;;;;;;3.58;1.17;;;2.70;99.90;;;;;;4956456;28;20030;-56
2024/02/24 01:09:05;;;;;;;2.47;1.27;;;2.70;99.90;;;;;;4918818;28;20026;-48
2024/02/24 01:11:32;;;;;;;2.05;1.25;;;2.70;99.90;;;;;;4927969;28;20657;-47
2024/02/24 01:13:59;;;;;;;1.85;1.10;;;2.70;99.90;;;;;;4970428;28;20410;-51
2024/02/24 01:16:24;;;;;;;2.50;1.40;;;2.80;99.90;;;;;;4941373;28;20068;-50
2024/02/24 01:18:50;;;;;;;5.82;1.45;;;2.80;99.90;;;;;;4920463;28;20112;-49
2024/02/24 01:21:15;;;;;;;2.58;1.35;;;2.80;99.90;;;;;;4957814;28;20555;-48
2024/02/24 01:23:41;;;;;;;1.23;0.95;;;2.80;99.90;;;;;;4922169;28;20108;-47
2024/02/24 01:26:07;;;;;;;2.08;1.05;;;2.80;99.90;;;;;;4965823;28;20065;-57
2024/02/24 01:28:34;;;;;;;1.58;1.17;;;2.80;99.90;;;;;;4928868;28;20018;-48
2024/02/24 01:30:59;;;;;;;3.47;1.50;;;2.80;99.90;;;;;;4921726;28;21391;-49
2024/02/24 01:33:25;;;;;;;1.65;0.80;;;2.80;99.90;;;;;;4954755;28;20060;-48
2024/02/24 01:35:51;;;;;;;3.00;1.23;;;2.80;99.90;;;;;;4918820;28;20026;-46
2024/02/24 01:38:16;;;;;;;1.85;1.10;;;2.80;99.90;;;;;;4923915;28;20141;-55
2024/02/24 01:40:42;;;;;;;1.92;0.95;;;2.80;99.90;;;;;;4965935;28;20505;-49
2024/02/24 01:43:24;;;;;;;3.70;0.90;;;2.80;99.90;;;;;;4923597;28;20065;-51
2024/02/24 01:45:51;;;;;;;1.95;1.20;;;2.70;99.90;;;;;;4902237;28;20030;-49
2024/02/24 01:48:17;;;;;;;2.15;1.10;;;2.70;99.90;;;;;;4953288;28;20080;-49
2024/02/24 01:50:45;;;;;;;2.58;1.33;;;2.70;99.90;;;;;;4917517;28;20026;-50
2024/02/24 01:53:11;;;;;;;1.90;1.00;;;2.60;99.90;;;;;;4951575;28;20375;-55
2024/02/24 01:55:37;;;;;;;0.70;0.50;;;2.60;99.90;;;;;;4935279;28;20076;-47
2024/02/24 01:58:03;;;;;;;3.20;1.48;;;2.60;99.90;;;;;;4915352;28;22211;-50
2024/02/24 02:00:29;;;;;;;2.72;1.13;;;2.60;99.90;;;;;;4950627;28;20042;-50
2024/02/24 02:02:55;;;;;;;1.90;1.27;;;2.50;99.90;;;;;;4912818;28;20529;-47
2024/02/24 02:05:21;;;;;;;5.75;1.17;;;2.50;99.90;;;;;;4910827;28;20120;-49
2024/02/24 02:07:46;;;;;;;1.17;0.85;;;2.50;99.90;;;;;;4961953;28;20076;-50
2024/02/24 02:10:12;;;;;;;4.85;1.25;;;2.50;99.90;;;;;;4911881;28;20022;-48
2024/02/24 02:12:37;;;;;;;1.80;1.20;;;2.50;99.90;;;;;;4951911;28;20057;-50
2024/02/24 02:15:03;;;;;;;2.78;0.85;;;2.40;99.90;;;;;;4909141;28;20520;-48
2024/02/24 02:17:30;;;;;;;2.03;0.93;;;2.40;99.90;;;;;;4912507;28;20702;-49
2024/02/24 02:20:03;;;;;;;1.55;0.93;;;2.30;99.90;;;;;;4961667;28;20022;-47
2024/02/24 02:22:30;;;;;;;2.67;1.20;;;2.30;99.90;;;;;;4923943;28;20022;-52
2024/02/24 02:24:56;;;;;;;2.78;1.23;;;2.30;99.90;;;;;;4906909;28;20609;-47
2024/02/24 02:27:21;;;;;;;4.55;1.40;;;2.30;99.90;;;;;;4948377;28;20033;-52
2024/02/24 02:29:47;;;;;;;2.63;1.13;;;2.30;99.90;;;;;;4907270;28;20800;-48
2024/02/24 02:32:13;;;;;;;3.15;1.30;;;2.30;99.90;;;;;;4929229;28;20030;-57
2024/02/24 02:34:38;;;;;;;4.13;1.13;;;2.20;99.90;;;;;;4940883;28;20053;-47
2024/02/24 02:37:05;;;;;;;1.45;0.90;;;2.30;99.90;;;;;;4904933;28;21322;-47
2024/02/24 02:39:31;;;;;;;6.18;1.05;;;2.30;99.90;;;;;;4946292;28;20026;-51
2024/02/24 02:41:57;;;;;;;2.80;1.00;;;2.30;99.90;;;;;;4908113;28;20121;-53
2024/02/24 02:44:23;;;;;;;1.85;1.05;;;2.20;99.90;;;;;;4904088;28;20060;-52
2024/02/24 02:46:49;;;;;;;1.98;0.80;;;2.20;99.90;;;;;;4956298;28;20068;-50
2024/02/24 02:49:16;;;;;;;2.47;0.98;;;2.20;99.90;;;;;;4904493;28;20542;-50
2024/02/24 02:51:41;;;;;;;1.30;1.20;;;2.20;99.90;;;;;;4936263;28;20026;-57
2024/02/24 02:54:07;;;;;;;1.63;0.90;;;2.20;99.90;;;;;;4914653;28;20129;-52
2024/02/24 02:56:33;;;;;;;2.45;1.10;;;2.10;99.90;;;;;;4900683;28;22176;-49
2024/02/24 02:58:58;;;;;;;0.95;0.77;;;2.10;99.90;;;;;;4957054;28;20045;-51
2024/02/24 03:01:24;;;;;;;3.30;1.45;;;2.10;99.90;;;;;;4902672;28;20014;-48
2024/02/24 03:03:49;;;;;;;6.07;0.95;;;2.10;99.90;;;;;;4914462;28;20497;-51
2024/02/24 03:06:17;;;;;;;1.75;1.02;;;2.10;99.90;;;;;;4950047;28;20042;-48
2024/02/24 03:08:43;;;;;;;1.58;1.00;;;2.00;99.90;;;;;;4897289;28;20080;-50
2024/02/24 03:11:17;;;;;;;2.85;0.75;;;2.00;99.90;;;;;;4947075;28;20038;-58
2024/02/24 03:13:46;;;;;;;4.47;0.93;;;2.00;99.90;;;;;;4955357;28;20401;-53
2024/02/24 03:16:11;;;;;;;1.33;0.90;;;2.00;99.90;;;;;;4896532;28;20225;-53
2024/02/24 03:18:37;;;;;;;1.10;0.70;;;1.90;99.90;;;;;;4947967;28;20034;-48
2024/02/24 03:21:02;;;;;;;5.28;1.02;;;1.90;99.90;;;;;;4900649;28;20029;-52
2024/02/24 03:23:28;;;;;;;1.52;1.05;;;1.90;99.90;;;;;;4900683;28;22804;-49
2024/02/24 03:25:53;;;;;;;2.83;1.40;;;1.90;99.90;;;;;;4955307;28;20034;-50
2024/02/24 03:28:19;;;;;;;1.67;0.80;;;1.90;99.90;;;;;;4900256;28;20211;-50
2024/02/24 03:30:45;;;;;;;3.95;1.23;;;1.90;99.90;;;;;;4919262;28;20105;-57
2024/02/24 03:33:12;;;;;;;1.90;1.00;;;1.90;99.90;;;;;;4938829;28;20034;-48
2024/02/24 03:35:40;;;;;;;2.88;1.42;;;1.90;99.90;;;;;;4896617;28;21565;-54
2024/02/24 03:38:06;;;;;;;2.65;1.30;;;1.90;99.90;;;;;;4953836;28;20038;-53
2024/02/24 03:40:32;;;;;;;1.42;1.10;;;1.90;99.90;;;;;;4893361;28;20068;-52
2024/02/24 03:42:58;;;;;;;2.38;1.35;;;1.90;99.90;;;;;;4900323;28;20243;-53
2024/02/24 03:45:24;;;;;;;2.35;1.60;;;1.90;99.90;;;;;;4941275;28;20133;-52
2024/02/24 03:47:50;;;;;;;2.65;1.05;;;1.90;99.90;;;;;;4892653;28;20591;-48
2024/02/24 03:50:15;;;;;;;1.40;1.13;;;1.90;99.90;;;;;;4912963;28;20041;-57
2024/02/24 03:52:41;;;;;;;1.67;0.90;;;1.90;99.90;;;;;;4916342;28;20030;-51
2024/02/24 03:55:07;;;;;;;2.78;1.17;;;1.90;99.90;;;;;;4889685;28;21812;-52
2024/02/24 03:57:32;;;;;;;2.47;1.17;;;1.90;99.90;;;;;;4940310;28;20473;-53
2024/02/24 03:59:59;;;;;;;3.30;0.93;;;1.90;99.90;;;;;;4885056;28;20049;-51
2024/02/24 04:02:25;;;;;;;3.03;1.15;;;1.90;99.90;;;;;;4885132;28;20061;-50
2024/02/24 04:04:52;;;;;;;2.58;1.38;;;1.90;99.90;;;;;;4950617;28;20036;-49
2024/02/24 04:07:17;;;;;;;3.83;1.00;;;1.80;99.90;;;;;;4885982;28;20363;-54
2024/02/24 04:09:43;;;;;;;4.28;1.30;;;1.80;99.90;;;;;;4924096;28;20045;-58
2024/02/24 04:12:08;;;;;;;2.72;1.20;;;1.80;99.90;;;;;;4904610;28;20037;-49
2024/02/24 04:14:37;;;;;;;2.45;1.17;;;1.80;99.90;;;;;;4898003;28;20045;-49
2024/02/24 04:17:03;;;;;;;2.78;1.38;;;1.80;99.90;;;;;;4963027;28;20413;-50
2024/02/24 04:19:28;;;;;;;2.15;1.20;;;1.80;99.90;;;;;;4885950;28;20038;-49
2024/02/24 04:21:54;;;;;;;4.10;1.20;;;1.70;99.90;;;;;;4880783;28;20026;-51
2024/02/24 04:24:19;;;;;;;1.48;0.82;;;1.80;99.90;;;;;;4936850;28;20038;-49
2024/02/24 04:26:45;;;;;;;3.72;0.88;;;1.80;99.90;;;;;;4881319;28;20542;-55
2024/02/24 04:29:10;;;;;;;3.10;1.30;;;1.80;99.90;;;;;;4932345;28;20429;-57
2024/02/24 04:31:36;;;;;;;2.03;1.38;;;1.80;99.90;;;;;;4921856;28;20046;-48
2024/02/24 04:34:02;;;;;;;2.65;1.10;;;1.80;99.90;;;;;;4875723;28;20844;-47
2024/02/24 04:36:27;;;;;;;1.35;0.90;;;1.80;99.90;;;;;;4931356;28;20474;-51
2024/02/24 04:38:53;;;;;;;1.95;1.15;;;1.80;99.90;;;;;;4878328;28;20517;-52
2024/02/24 04:41:19;;;;;;;1.42;0.88;;;1.80;99.90;;;;;;4909404;28;20116;-58
2024/02/24 04:43:44;;;;;;;3.10;0.68;;;1.80;99.90;;;;;;4935518;28;20152;-46
2024/02/24 04:46:10;;;;;;;2.03;1.20;;;1.80;99.90;;;;;;4872155;28;21860;-47
2024/02/24 04:48:35;;;;;;;3.33;1.17;;;1.80;99.90;;;;;;4966734;28;20021;-49
2024/02/24 04:51:01;;;;;;;1.63;1.00;;;1.80;99.90;;;;;;4906599;28;20046;-51
2024/02/24 04:53:26;;;;;;;2.13;0.90;;;1.80;99.90;;;;;;4904402;28;20029;-52
2024/02/24 04:55:52;;;;;;;3.25;1.25;;;1.80;99.90;;;;;;4938926;28;20034;-52
2024/02/24 04:58:17;;;;;;;4.05;1.17;;;1.70;99.90;;;;;;4916245;28;20042;-54
2024/02/24 05:00:43;;;;;;;2.97;1.33;;;1.70;99.90;;;;;;4939672;28;20048;-57
2024/02/24 05:03:09;;;;;;;1.65;0.90;;;1.70;99.90;;;;;;4924684;28;20116;-54
2024/02/24 05:05:34;;;;;;;3.85;1.15;;;1.70;99.90;;;;;;4930528;28;21287;-52
2024/02/24 05:08:00;;;;;;;3.33;1.23;;;1.70;99.90;;;;;;4957012;28;20033;-52
2024/02/24 05:10:25;;;;;;;2.42;1.20;;;1.70;99.90;;;;;;4915182;28;20032;-48
2024/02/24 05:12:51;;;;;;;3.40;1.40;;;1.60;99.90;;;;;;4925605;28;20038;-57
2024/02/24 05:15:17;;;;;;;3.13;1.30;;;1.70;99.90;;;;;;4955027;28;20409;-48
2024/02/24 05:17:44;;;;;;;2.58;1.15;;;1.60;99.90;;;;;;4934336;28;20037;-49
2024/02/24 05:20:11;;;;;;;3.00;0.95;;;1.70;99.90;;;;;;4933052;28;20030;-48
2024/02/24 05:22:36;;;;;;;2.28;1.10;;;1.60;99.90;;;;;;4907330;28;20670;-48
2024/02/24 05:25:02;;;;;;;2.00;1.30;;;1.60;99.90;;;;;;4928044;28;21523;-50
2024/02/24 05:27:28;;;;;;;1.65;0.93;;;1.60;99.90;;;;;;4984077;28;21364;-51
2024/02/24 05:29:53;;;;;;;3.85;1.20;;;1.60;99.90;;;;;;4914267;28;20819;-49
2024/02/24 05:32:19;;;;;;;2.72;1.27;;;1.60;99.90;;;;;;4900676;28;20049;-47
2024/02/24 05:34:45;;;;;;;2.95;1.20;;;1.60;99.90;;;;;;4929224;28;20026;-50
2024/02/24 05:37:10;;;;;;;5.20;1.38;;;1.60;99.90;;;;;;4924316;28;21276;-52
2024/02/24 05:39:36;;;;;;;1.70;1.30;;;1.50;99.90;;;;;;4979890;28;20101;-52
2024/02/24 05:42:02;;;;;;;2.10;1.17;;;1.50;99.90;;;;;;4930046;28;20104;-51
2024/02/24 05:44:28;;;;;;;2.28;1.30;;;1.50;99.90;;;;;;4877736;28;20718;-49
2024/02/24 05:46:53;;;;;;;2.80;1.13;;;1.50;99.90;;;;;;4931430;28;20065;-52
2024/02/24 05:49:19;;;;;;;2.70;1.38;;;1.50;99.90;;;;;;4906192;28;20062;-46
2024/02/24 05:51:45;;;;;;;2.33;1.13;;;1.50;99.90;;;;;;4924034;28;20029;-57
2024/02/24 05:54:10;;;;;;;2.35;1.50;;;1.50;99.90;;;;;;4949173;28;20080;-54
2024/02/24 05:56:36;;;;;;;1.10;1.00;;;1.50;99.90;;;;;;4913974;28;20046;-51
2024/02/24 05:59:02;;;;;;;2.15;1.27;;;1.50;99.90;;;;;;4924199;28;20032;-50
2024/02/24 06:01:27;;;;;;;2.63;1.13;;;1.50;99.90;;;;;;4906076;28;20129;-50
2024/02/24 06:03:53;;;;;;;2.45;1.60;;;1.50;99.90;;;;;;4912737;28;20068;-57
2024/02/24 06:06:19;;;;;;;2.85;1.55;;;1.50;99.90;;;;;;4951918;28;20120;-49
2024/02/24 06:08:45;;;;;;;2.63;1.33;;;1.50;99.90;;;;;;4904928;28;20380;-52
2024/02/24 06:11:10;;;;;;;4.43;1.42;;;1.50;99.90;;;;;;4920065;28;20150;-49
2024/02/24 06:13:36;;;;;;;4.32;1.35;;;1.60;99.90;;;;;;4909160;28;20030;-49
2024/02/24 06:16:03;;;;;;;3.58;1.83;;;1.60;99.90;;;;;;4870809;28;21715;-48
2024/02/24 06:18:30;;;;;;;3.85;1.30;;;1.70;99.90;;;;;;4973528;28;21385;-49
2024/02/24 06:20:56;;;;;;;3.78;1.42;;;1.60;99.90;;;;;;4916239;28;20112;-50
2024/02/24 06:23:21;;;;;;;3.75;1.27;;;1.60;99.90;;;;;;4894859;28;20063;-51
2024/02/24 06:25:47;;;;;;;2.50;1.30;;;1.70;99.90;;;;;;4919586;28;20033;-52
2024/02/24 06:28:13;;;;;;;4.47;1.20;;;1.70;99.90;;;;;;4885191;28;20973;-48
2024/02/24 06:30:38;;;;;;;2.53;1.13;;;1.70;99.90;;;;;;4976740;28;20062;-46
2024/02/24 06:33:07;;;;;;;1.73;1.15;;;1.70;99.90;;;;;;4995116;28;20123;-51
2024/02/24 06:35:33;;;;;;;2.80;1.20;;;1.70;99.90;;;;;;4946583;28;22016;-50
2024/02/24 06:37:59;;;;;;;1.98;1.55;;;1.80;99.90;;;;;;4977151;28;20038;-56
2024/02/24 06:40:25;;;;;;;2.72;1.25;;;1.80;99.90;;;;;;4982885;28;20030;-50
2024/02/24 06:42:51;;;;;;;2.80;1.40;;;1.80;99.90;;;;;;4971263;28;20061;-51
2024/02/24 06:45:17;;;;;;;2.17;1.25;;;1.80;99.90;;;;;;4971911;28;20054;-48
2024/02/24 06:47:42;;;;;;;3.30;1.45;;;1.90;99.90;;;;;;4971110;28;20029;-52
2024/02/24 06:50:08;;;;;;;1.77;1.08;;;1.90;99.90;;;;;;4976883;28;20034;-52
2024/02/24 06:52:34;;;;;;;4.25;1.05;;;1.90;99.90;;;;;;4973721;28;20490;-51
2024/02/24 06:55:00;;;;;;;5.30;2.22;;;1.90;99.90;;;;;;4974510;28;20040;-54
2024/02/24 06:57:25;;;;;;;3.28;1.55;;;2.00;99.90;;;;;;4970765;28;20072;-49
2024/02/24 06:59:52;;;;;;;3.10;1.48;;;2.00;99.90;;;;;;4973060;28;20026;-53
2024/02/24 07:02:18;;;;;;;6.68;1.60;;;2.00;99.90;;;;;;4963278;28;20064;-55
2024/02/24 07:04:44;;;;;;;1.38;1.00;;;2.00;99.90;;;;;;4970233;28;20097;-49
2024/02/24 07:07:10;;;;;;;3.47;1.60;;;2.10;99.90;;;;;;4974213;28;20025;-52
2024/02/24 07:09:35;;;;;;;3.33;1.60;;;2.10;99.90;;;;;;4966502;28;20029;-50
2024/02/24 07:12:02;;;;;;;1.23;1.13;;;2.20;99.90;;;;;;4985381;28;20030;-52
2024/02/24 07:14:27;;;;;;;4.32;2.00;;;2.20;99.90;;;;;;4966636;28;20129;-51
2024/02/24 07:16:53;;;;;;;4.20;2.17;;;2.30;99.90;;;;;;4971190;28;20104;-52
2024/02/24 07:19:18;;;;;;;3.60;1.85;;;2.30;99.90;;;;;;4953557;28;20037;-55
2024/02/24 07:21:44;;;;;;;5.97;2.30;;;2.30;99.90;;;;;;4941596;28;20018;-53
2024/02/24 07:24:10;;;;;;;3.65;2.88;;;2.40;99.90;;;;;;4980789;28;20033;-58
2024/02/24 07:26:45;;;;;;;4.85;2.28;;;2.40;99.90;;;;;;4982292;28;20068;-52
2024/02/24 07:29:11;;;;;;;3.40;1.65;;;2.50;99.90;;;;;;4966198;28;20026;-53
2024/02/24 07:31:37;;;;;;;5.55;1.77;;;2.50;99.90;;;;;;4978772;28;20018;-52
2024/02/24 07:34:03;;;;;;;5.13;1.50;;;2.50;99.90;;;;;;4964323;28;20394;-53
2024/02/24 07:36:32;;;;;;;3.17;1.58;;;2.60;99.90;;;;;;4966831;28;22185;-51
2024/02/24 07:38:58;;;;;;;3.40;2.00;;;2.70;99.90;;;;;;5000863;28;20031;-52
2024/02/24 07:41:23;;;;;;;3.42;1.83;;;2.70;99.90;;;;;;4948879;28;20068;-53
2024/02/24 07:43:49;;;;;;;2.58;1.67;;;2.80;99.90;;;;;;4981136;28;20053;-52
2024/02/24 07:46:29;;;;;;;3.60;1.70;;;2.90;99.90;;;;;;4970554;28;20022;-48
2024/02/24 07:48:59;;;;;;;4.28;1.60;;;3.00;99.90;;;;;;4954206;28;20033;-49
2024/02/24 07:51:25;;;;;;;3.10;1.52;;;3.10;99.90;;;;;;4957515;28;20014;-50
2024/02/24 07:53:51;;;;;;;3.70;1.63;;;3.20;99.90;;;;;;4960419;28;20022;-53
2024/02/24 07:56:17;;;;;;;4.90;2.05;;;3.30;99.90;;;;;;4959833;28;20072;-58
2024/02/24 07:58:43;;;;;;;3.33;1.48;;;3.30;99.90;;;;;;4962874;28;20079;-58
2024/02/24 08:01:09;;;;;;;6.53;2.15;;;3.40;99.90;;;;;;4992137;28;20029;-49
2024/02/24 08:03:35;;;;;;;4.00;1.75;;;3.40;99.90;;;;;;4954191;28;20041;-49
2024/02/24 08:06:00;;;;;;;3.38;2.20;;;3.40;99.90;;;;;;4980734;28;20033;-49
2024/02/24 08:08:26;;;;;;;5.03;2.10;;;3.40;99.90;;;;;;4955475;28;20716;-48
2024/02/24 08:10:51;;;;;;;3.75;1.95;;;3.40;99.90;;;;;;4956191;28;20045;-51
2024/02/24 08:13:17;;;;;;;2.42;1.65;;;3.50;99.90;;;;;;4971843;28;20195;-57
2024/02/24 08:15:43;;;;;;;6.25;3.08;;;3.50;99.90;;;;;;4956566;28;20026;-49
2024/02/24 08:18:09;;;;;;;4.30;1.65;;;3.50;99.90;;;;;;4982399;28;20032;-58
2024/02/24 08:20:35;;;;;;;4.60;2.00;;;3.50;99.90;;;;;;4964701;28;20129;-49
2024/02/24 08:23:00;;;;;;;4.28;2.60;;;3.60;99.90;;;;;;4954541;28;21874;-53
2024/02/24 08:25:26;;;;;;;4.32;2.72;;;3.50;99.90;;;;;;4969827;28;20026;-49
2024/02/24 08:27:51;;;;;;;5.78;2.63;;;3.60;99.90;;;;;;4955991;28;20105;-50
2024/02/24 08:30:18;;;;;;;5.45;2.35;;;3.60;99.90;;;;;;4953431;28;20018;-57
2024/02/24 08:32:44;;;;;;;5.63;2.15;;;3.70;99.90;;;;;;4985045;28;20560;-48
2024/02/24 08:35:10;;;;;;;4.82;2.45;;;3.70;99.90;;;;;;4955091;28;20037;-53
2024/02/24 08:37:36;;;;;;;4.82;1.67;;;3.70;99.90;;;;;;4971196;28;20022;-53
2024/02/24 08:40:02;;;;;;;6.63;1.70;;;3.80;99.90;;;;;;4948836;28;20022;-47
2024/02/24 08:42:27;;;;;;;4.65;1.58;;;3.80;99.90;;;;;;4949294;28;20140;-49
2024/02/24 08:44:53;;;;;;;2.97;1.60;;;4.00;99.90;;;;;;4980949;28;20161;-47
2024/02/24 08:47:18;;;;;;;4.68;1.80;;;4.00;99.90;;;;;;4950010;28;20036;-51
2024/02/24 08:49:44;;;;;;;4.20;1.77;;;4.10;99.90;;;;;;4953831;28;20548;-58
2024/02/24 08:52:10;;;;;;;5.53;1.58;;;4.10;99.90;;;;;;4967723;28;20529;-49
2024/02/24 08:54:35;;;;;;;3.47;1.75;;;4.20;99.90;;;;;;4949089;28;20554;-47
2024/02/24 08:57:01;;;;;;;2.47;1.60;;;4.30;99.90;;;;;;4982757;28;20660;-48
2024/02/24 08:59:26;;;;;;;4.38;1.58;;;4.30;99.90;;;;;;4948785;28;20594;-50
2024/02/24 09:01:54;;;;;;;2.65;1.55;;;4.30;99.90;;;;;;4949259;28;20038;-49
2024/02/24 09:04:20;;;;;;;4.43;1.48;;;4.40;99.90;;;;;;4981227;28;20220;-52
2024/02/24 09:06:45;;;;;;;4.65;1.83;;;4.40;99.90;;;;;;4945967;28;20030;-50
2024/02/24 09:09:16;;;;;;;3.35;1.38;;;4.40;99.90;;;;;;4960757;28;20052;-58
2024/02/24 09:11:42;;;;;;;3.88;1.48;;;4.50;99.90;;;;;;4978434;28;20032;-51
2024/02/24 09:14:08;;;;;;;3.35;1.60;;;4.50;99.90;;;;;;4943002;28;20032;-52
2024/02/24 09:16:35;;;;;;;2.72;1.50;;;4.50;99.90;;;;;;4967188;28;20034;-52
2024/02/24 09:19:01;;;;;;;5.07;2.00;;;4.50;99.90;;;;;;4940786;28;20091;-53
2024/02/24 09:21:27;;;;;;;6.95;1.92;;;4.60;99.90;;;;;;4944137;28;20490;-51
2024/02/24 09:23:53;;;;;;;2.65;1.40;;;4.60;99.90;;;;;;4978749;28;20393;-50
2024/02/24 09:26:19;;;;;;;6.57;2.22;;;4.70;99.90;;;;;;4939504;28;20069;-51
2024/02/24 09:28:45;;;;;;;5.57;1.58;;;4.70;99.90;;;;;;4947953;28;20509;-56
2024/02/24 09:31:10;;;;;;;2.92;1.40;;;4.80;99.90;;;;;;4962423;28;20018;-51
2024/02/24 09:33:36;;;;;;;6.13;1.63;;;4.80;99.90;;;;;;4936678;28;21395;-49
2024/02/24 09:36:02;;;;;;;3.72;1.75;;;4.90;99.90;;;;;;4971007;28;20037;-47
2024/02/24 09:38:27;;;;;;;7.35;2.00;;;5.00;99.90;;;;;;4936938;28;20081;-50
2024/02/24 09:40:53;;;;;;;3.30;1.75;;;5.10;99.90;;;;;;4939163;28;20084;-50
2024/02/24 09:43:19;;;;;;;3.40;1.50;;;5.10;99.90;;;;;;4965586;28;20030;-48
2024/02/24 09:45:48;;;;;;;2.78;1.70;;;5.20;99.90;;;;;;4933053;28;20494;-49
2024/02/24 09:48:15;;;;;;;3.28;2.00;;;5.40;99.90;;;;;;4964622;28;20033;-57
2024/02/24 09:50:41;;;;;;;3.25;2.03;;;5.50;99.90;;;;;;4955668;28;20104;-53
2024/02/24 09:53:07;;;;;;;3.83;2.20;;;5.80;99.90;;;;;;4930600;28;20052;-48
2024/02/24 09:55:34;;;;;;;2.75;1.75;;;6.10;99.90;;;;;;4960543;28;20176;-53
2024/02/24 09:58:01;;;;;;;5.10;2.20;;;6.40;99.90;;;;;;4933698;28;20564;-52
2024/02/24 10:00:26;;;;;;;1.70;1.40;;;6.60;99.90;;;;;;4929596;28;20018;-49
2024/02/24 10:02:53;;;;;;;2.95;1.83;;;6.80;99.90;;;;;;4970691;28;20562;-50
2024/02/24 10:05:18;;;;;;;2.63;1.48;;;6.90;99.90;;;;;;4928831;28;20038;-55
2024/02/24 10:07:47;;;;;;;7.15;1.80;;;7.00;99.90;;;;;;4948322;28;20010;-59
2024/02/24 10:10:16;;;;;;;2.70;1.42;;;7.10;99.90;;;;;;4963500;28;20521;-53
2024/02/24 10:13:02;;;;;;;1.63;1.27;;;7.00;99.90;;;;;;4929128;28;20026;-52
2024/02/24 10:15:29;;;;;;;4.00;2.22;;;7.00;99.90;;;;;;4928381;28;20517;-49
2024/02/24 10:17:56;;;;;;;5.70;2.88;;;7.00;99.90;;;;;;4970582;28;20279;-50
2024/02/24 10:20:22;;;;;;;4.47;2.00;;;7.00;99.90;;;;;;4943701;28;20033;-51
2024/02/24 10:22:47;;;;;;;8.50;3.58;;;7.00;99.90;;;;;;4927520;28;20445;-58
2024/02/24 10:25:14;;;;;;;3.95;2.55;;;7.00;99.90;;;;;;4957157;28;20135;-54
2024/02/24 10:27:43;;;;;;;3.20;1.80;;;7.00;99.90;;;;;;4925596;28;20053;-50
2024/02/24 10:30:10;;;;;;;3.17;1.80;;;7.10;99.90;;;;;;4964738;28;20041;-59
2024/02/24 10:32:37;;;;;;;2.78;1.67;;;7.10;99.90;;;;;;4923410;28;20179;-51
2024/02/24 10:35:06;;;;;;;5.15;1.98;;;7.10;99.90;;;;;;4921020;28;22054;-55
2024/02/24 10:37:34;;;;;;;3.88;2.10;;;7.20;99.90;;;;;;4956929;28;20073;-52
2024/02/24 10:40:03;;;;;;;4.50;1.70;;;7.30;99.90;;;;;;4921297;28;20113;-54
2024/02/24 10:42:29;;;;;;;2.83;1.75;;;7.50;99.90;;;;;;4920274;28;21903;-49
2024/02/24 10:44:55;;;;;;;3.50;1.90;;;7.60;99.90;;;;;;4964642;28;20033;-48
2024/02/24 10:47:21;;;;;;;3.53;1.75;;;7.70;99.90;;;;;;4919833;28;20489;-50
2024/02/24 10:49:47;;;;;;;3.38;1.63;;;7.90;99.90;;;;;;4926784;28;20041;-58
2024/02/24 10:52:14;;;;;;;2.20;1.50;;;8.00;99.90;;;;;;4952088;28;20073;-51
2024/02/24 10:54:42;;;;;;;3.90;1.40;;;8.00;99.90;;;;;;4915940;28;20029;-54
2024/02/24 10:57:09;;;;;;;3.30;1.60;;;7.90;99.90;;;;;;4964234;28;20026;-48
2024/02/24 10:59:35;;;;;;;3.08;1.30;;;7.90;99.90;;;;;;4924072;28;20121;-50
2024/02/24 11:02:06;;;;;;;3.95;1.65;;;7.80;99.90;;;;;;4921840;28;20435;-48
2024/02/24 11:04:36;;;;;;;4.05;1.20;;;7.80;99.90;;;;;;4955380;28;20034;-50
2024/02/24 11:07:01;;;;;;;4.30;1.40;;;7.80;99.90;;;;;;4913405;28;20048;-47
2024/02/24 11:09:38;;;;;;;2.60;1.40;;;7.80;99.90;;;;;;4914766;28;20025;-49
2024/02/24 11:12:11;;;;;;;4.07;1.35;;;7.90;99.90;;;;;;4962427;28;20658;-50
2024/02/24 11:14:38;;;;;;;5.75;1.83;;;8.00;99.90;;;;;;4930357;28;20072;-51
2024/02/24 11:17:04;;;;;;;3.60;2.08;;;8.00;99.90;;;;;;4914756;28;22062;-54
2024/02/24 11:19:48;;;;;;;2.47;1.73;;;8.00;99.90;;;;;;4950033;28;20026;-48
2024/02/24 11:22:21;;;;;;;4.03;1.67;;;8.10;99.90;;;;;;4949669;28;20033;-54
2024/02/24 11:24:58;;;;;;;4.85;1.75;;;8.10;99.90;;;;;;4912016;28;20494;-53
2024/02/24 11:27:29;;;;;;;2.67;1.38;;;8.20;99.90;;;;;;4910270;28;20145;-47
2024/02/24 11:29:54;;;;;;;2.15;1.38;;;8.20;99.90;;;;;;4962022;28;20026;-50
2024/02/24 11:32:21;;;;;;;1.77;1.33;;;8.30;99.90;;;;;;4910346;28;20036;-48
2024/02/24 11:34:48;;;;;;;1.15;1.00;;;8.30;99.90;;;;;;4924357;28;20057;-58
2024/02/24 11:37:17;;;;;;;2.78;1.00;;;8.40;99.90;;;;;;4947749;28;20057;-54
2024/02/24 11:39:44;;;;;;;2.30;1.00;;;8.40;99.90;;;;;;4908480;28;20228;-48
2024/02/24 11:42:13;;;;;;;2.05;1.13;;;8.50;99.90;;;;;;4959823;28;20030;-58
2024/02/24 11:44:44;;;;;;;1.75;1.00;;;8.60;99.90;;;;;;4936175;28;20029;-50
2024/02/24 11:47:10;;;;;;;2.70;1.17;;;8.60;99.90;;;;;;4912064;28;21643;-49
2024/02/24 11:49:47;;;;;;;1.00;0.90;;;8.60;99.90;;;;;;4951117;28;20415;-51
2024/02/24 11:52:15;;;;;;;4.47;1.00;;;8.60;99.90;;;;;;4939637;28;20037;-50
2024/02/24 11:54:42;;;;;;;1.55;1.15;;;8.60;99.90;;;;;;4907642;28;20121;-51
2024/02/24 11:57:08;;;;;;;1.60;1.05;;;8.60;99.90;;;;;;4960963;28;20026;-48
2024/02/24 11:59:36;;;;;;;2.25;1.17;;;8.70;99.90;;;;;;4909874;28;20464;-51
2024/02/24 12:02:02;;;;;;;2.22;0.85;;;8.70;99.90;;;;;;4905206;28;21594;-50
2024/02/24 12:04:28;;;;;;;2.85;0.90;;;8.70;99.90;;;;;;4951932;28;20028;-51
2024/02/24 12:06:54;;;;;;;2.35;1.00;;;8.70;99.90;;;;;;4901590;28;20034;-52
2024/02/24 12:09:20;;;;;;;2.70;1.52;;;8.70;99.90;;;;;;4921303;28;20037;-59
2024/02/24 12:11:46;;;;;;;2.10;1.23;;;8.80;99.90;;;;;;4957744;28;20026;-52
2024/02/24 12:14:11;;;;;;;2.72;1.02;;;8.80;99.90;;;;;;4902748;28;20637;-54
2024/02/24 12:16:38;;;;;;;2.97;1.40;;;8.80;99.90;;;;;;4946117;28;20486;-50
2024/02/24 12:19:09;;;;;;;2.53;1.13;;;8.90;99.90;;;;;;4903844;28;20026;-47
2024/02/24 12:21:34;;;;;;;2.38;1.00;;;8.90;99.90;;;;;;4900081;28;21244;-49
2024/02/24 12:24:00;;;;;;;1.98;1.40;;;8.90;99.90;;;;;;4959811;28;20564;-48
2024/02/24 12:26:26;;;;;;;0.95;0.88;;;8.90;99.90;;;;;;4896811;28;20026;-51
2024/02/24 12:28:52;;;;;;;2.83;1.20;;;8.80;99.90;;;;;;4899055;28;20025;-50
2024/02/24 12:31:18;;;;;;;2.72;1.10;;;8.80;99.90;;;;;;4947950;28;20032;-52
2024/02/24 12:33:45;;;;;;;1.58;1.05;;;8.80;99.90;;;;;;4926817;23;20042;-85
2024/02/24 12:36:19;;;;;;;1.50;1.10;;;8.90;99.90;;;;;;4976579;28;20037;-83
2024/02/24 12:38:45;;;;;;;1.92;1.00;;;8.90;99.90;;;;;;4989708;28;20071;-83
2024/02/24 12:41:12;;;;;;;1.20;0.85;;;8.90;99.90;;;;;;4927016;28;20042;-84
2024/02/24 12:43:39;;;;;;;3.70;1.23;;;8.90;99.90;;;;;;4977113;28;20044;-84
2024/02/24 12:46:06;;;;;;;3.78;1.70;;;8.80;99.90;;;;;;4950399;28;20026;-87
2024/02/24 12:48:32;;;;;;;1.77;1.33;;;8.70;99.90;;;;;;4948176;28;21377;-86
2024/02/24 12:51:00;;;;;;;2.45;1.50;;;8.70;99.90;;;;;;5014982;28;20018;-85
2024/02/24 12:53:26;;;;;;;3.50;1.38;;;8.80;99.90;;;;;;4940757;28;20029;-84